createdAt,value
2022-12-31T00:01:04.246Z,99172.84
2022-12-31T00:03:31.864Z,99169.78
2022-12-31T00:05:59.471Z,99177.63
2022-12-31T00:08:27.078Z,99171.38
2022-12-31T00:10:54.637Z,99166.72
2022-12-31T00:13:24.430Z,99164.56
2022-12-31T00:15:51.893Z,99164.78
2022-12-31T00:18:19.371Z,99169.34
2022-12-31T00:20:46.888Z,99170.38
2022-12-31T00:23:14.569Z,99168.19
2022-12-31T00:25:42.091Z,99172.31
2022-12-31T00:28:09.600Z,99174.34
2022-12-31T00:30:38.495Z,99179.94
2022-12-31T00:33:06.030Z,99181.16
2022-12-31T00:35:34.761Z,99176.38
2022-12-31T00:38:02.232Z,99178.13
2022-12-31T00:40:29.726Z,99177.31
2022-12-31T00:42:57.141Z,99183.78
2022-12-31T00:45:24.626Z,99184.16
2022-12-31T00:47:53.361Z,99176.59
2022-12-31T00:50:20.918Z,99166.72
2022-12-31T00:52:48.345Z,99172.91
2022-12-31T00:55:15.798Z,99170.50
2022-12-31T00:57:43.242Z,99136.47
2022-12-31T01:00:11.617Z,99177.41
2022-12-31T01:02:39.219Z,99177.75
2022-12-31T01:05:08.682Z,99178.13
2022-12-31T01:07:38.122Z,99176.75
2022-12-31T01:10:05.977Z,99179.00
2022-12-31T01:12:33.488Z,99171.63
2022-12-31T01:15:00.961Z,99174.72
2022-12-31T01:17:28.664Z,99173.34
2022-12-31T01:19:56.202Z,99176.59
2022-12-31T01:22:25.070Z,99177.41
2022-12-31T01:24:52.614Z,99179.66
2022-12-31T01:27:20.064Z,99172.72
2022-12-31T01:29:47.798Z,99175.91
2022-12-31T01:32:15.214Z,99172.13
2022-12-31T01:34:42.688Z,99171.13
2022-12-31T01:37:10.198Z,99170.31
2022-12-31T01:39:39.131Z,99178.94
2022-12-31T01:42:06.680Z,99177.94
2022-12-31T01:44:49.328Z,99189.47
2022-12-31T01:47:19.103Z,99175.50
2022-12-31T01:49:49.327Z,99171.50
2022-12-31T01:52:18.728Z,99168.69
2022-12-31T01:54:49.598Z,99172.31
2022-12-31T01:57:17.596Z,99172.56
2022-12-31T01:59:46.092Z,99173.03
2022-12-31T02:02:14.029Z,99180.13
2022-12-31T02:04:41.661Z,99177.16
2022-12-31T02:07:09.833Z,99168.91
2022-12-31T02:09:39.230Z,99168.41
2022-12-31T02:12:09.395Z,99154.94
2022-12-31T02:14:38.674Z,99154.47
2022-12-31T02:17:09.124Z,99170.59
2022-12-31T02:19:50.409Z,99163.56
2022-12-31T02:22:23.668Z,99153.63
2022-12-31T02:25:10.116Z,99141.34
2022-12-31T02:27:45.332Z,99141.88
2022-12-31T02:30:16.319Z,99151.94
2022-12-31T02:32:49.436Z,99154.81
2022-12-31T02:35:20.610Z,99163.19
2022-12-31T02:37:49.584Z,99160.69
2022-12-31T02:40:19.922Z,99163.19
2022-12-31T02:42:53.301Z,99161.28
2022-12-31T02:45:28.099Z,99167.50
2022-12-31T02:48:02.775Z,99166.94
2022-12-31T02:50:35.675Z,99185.22
2022-12-31T02:53:09.560Z,99168.25
2022-12-31T02:55:41.279Z,99177.09
2022-12-31T02:58:12.810Z,99187.22
2022-12-31T03:01:01.641Z,99190.38
2022-12-31T03:03:29.544Z,99179.81
2022-12-31T03:05:57.996Z,99200.09
2022-12-31T03:08:26.502Z,99184.22
2022-12-31T03:10:56.768Z,99192.06
2022-12-31T03:13:23.289Z,99204.63
2022-12-31T03:15:52.208Z,99191.25
2022-12-31T03:18:40.912Z,99207.72
2022-12-31T03:21:29.704Z,99202.56
2022-12-31T03:24:14.953Z,99191.19
2022-12-31T03:26:42.478Z,99204.09
2022-12-31T03:29:09.956Z,99204.31
2022-12-31T03:31:38.793Z,99217.22
2022-12-31T03:34:06.309Z,99215.19
2022-12-31T03:36:33.836Z,99194.97
2022-12-31T03:39:01.289Z,99195.38
2022-12-31T03:41:28.821Z,99191.75
2022-12-31T03:43:56.294Z,99190.84
2022-12-31T03:46:23.856Z,99183.56
2022-12-31T03:48:52.643Z,99178.00
2022-12-31T03:51:20.119Z,99175.59
2022-12-31T03:53:47.607Z,99167.19
2022-12-31T03:56:15.071Z,99165.44
2022-12-31T03:58:42.477Z,99166.97
2022-12-31T04:01:10.087Z,99147.25
2022-12-31T04:03:37.686Z,99145.25
2022-12-31T04:06:06.510Z,99139.22
2022-12-31T04:08:33.959Z,99132.41
2022-12-31T04:11:01.423Z,99133.63
2022-12-31T04:13:28.857Z,99134.84
2022-12-31T04:15:56.248Z,99139.84
2022-12-31T04:18:23.648Z,99151.34
2022-12-31T04:20:51.123Z,99148.53
2022-12-31T04:23:19.927Z,99145.19
2022-12-31T04:25:47.489Z,99144.59
2022-12-31T04:28:14.927Z,99140.97
2022-12-31T04:30:42.428Z,99091.69
2022-12-31T04:33:09.871Z,99137.66
2022-12-31T04:35:37.348Z,99141.34
2022-12-31T04:38:04.944Z,99147.38
2022-12-31T04:40:33.764Z,99154.59
2022-12-31T04:43:01.258Z,99147.66
2022-12-31T04:45:28.723Z,99161.84
2022-12-31T04:47:56.184Z,99168.22
2022-12-31T04:50:23.652Z,99155.78
2022-12-31T04:52:51.090Z,99148.53
2022-12-31T04:55:18.616Z,99150.59
2022-12-31T04:57:47.382Z,99144.34
2022-12-31T05:00:15.123Z,99152.78
2022-12-31T05:02:42.732Z,99150.25
2022-12-31T05:05:10.502Z,99152.06
2022-12-31T05:07:38.019Z,99147.06
2022-12-31T05:10:06.123Z,99148.50
2022-12-31T05:12:33.658Z,99133.13
2022-12-31T05:15:02.492Z,99132.34
2022-12-31T05:17:31.041Z,99137.81
2022-12-31T05:19:58.477Z,99151.22
2022-12-31T05:22:32.242Z,99137.75
2022-12-31T05:25:00.418Z,99133.88
2022-12-31T05:27:30.892Z,99137.06
2022-12-31T05:29:58.314Z,99151.00
2022-12-31T05:32:27.181Z,99147.59
2022-12-31T05:34:54.703Z,99142.81
2022-12-31T05:37:22.200Z,99136.75
2022-12-31T05:39:49.771Z,99131.69
2022-12-31T05:42:17.310Z,99136.91
2022-12-31T05:44:44.751Z,99119.97
2022-12-31T05:47:12.311Z,99113.91
2022-12-31T05:49:41.083Z,99083.19
2022-12-31T05:52:08.885Z,99093.91
2022-12-31T05:54:36.528Z,99092.53
2022-12-31T05:57:04.030Z,99077.00
2022-12-31T05:59:31.809Z,98913.94
2022-12-31T06:01:59.245Z,98856.66
2022-12-31T06:04:26.653Z,98843.41
2022-12-31T06:06:55.433Z,98833.91
2022-12-31T06:09:23.117Z,98840.00
2022-12-31T06:11:51.034Z,98849.22
2022-12-31T06:14:18.592Z,98855.81
2022-12-31T06:16:46.036Z,98855.69
2022-12-31T06:19:13.526Z,98859.88
2022-12-31T06:21:41.045Z,98857.84
2022-12-31T06:24:10.069Z,98862.75
2022-12-31T06:26:37.736Z,98868.28
2022-12-31T06:29:05.168Z,98880.31
2022-12-31T06:31:32.681Z,98887.94
2022-12-31T06:34:00.222Z,98876.47
2022-12-31T06:36:28.082Z,98881.13
2022-12-31T06:38:55.582Z,98867.63
2022-12-31T06:41:24.404Z,98875.91
2022-12-31T06:43:51.954Z,98867.75
2022-12-31T06:46:19.494Z,98862.50
2022-12-31T06:48:47.078Z,98844.31
2022-12-31T06:51:17.506Z,98837.06
2022-12-31T06:53:45.763Z,98826.16
2022-12-31T06:56:15.901Z,98815.56
2022-12-31T06:58:45.916Z,98817.81
2022-12-31T07:01:27.289Z,98825.84
2022-12-31T07:04:01.318Z,98818.34
2022-12-31T07:06:33.793Z,98809.34
2022-12-31T07:09:05.506Z,98814.66
2022-12-31T07:11:37.518Z,98814.97
2022-12-31T07:14:12.931Z,98797.34
2022-12-31T07:16:47.840Z,98736.63
2022-12-31T07:19:20.505Z,98750.03
2022-12-31T07:21:49.667Z,98728.78
2022-12-31T07:24:17.562Z,98679.56
2022-12-31T07:26:56.796Z,98684.63
2022-12-31T07:29:30.681Z,98700.09
2022-12-31T07:32:02.570Z,98729.09
2022-12-31T07:34:36.609Z,98714.41
2022-12-31T07:37:06.222Z,98725.53
2022-12-31T07:39:38.723Z,98734.66
2022-12-31T07:42:10.491Z,98730.53
2022-12-31T07:44:49.631Z,98734.06
2022-12-31T07:47:21.483Z,98744.53
2022-12-31T07:49:49.598Z,98751.97
2022-12-31T07:52:17.435Z,98752.09
2022-12-31T07:54:44.881Z,98763.13
2022-12-31T07:57:13.210Z,98756.63
2022-12-31T07:59:59.338Z,98763.78
2022-12-31T08:02:34.320Z,98763.13
2022-12-31T08:05:07.281Z,98772.03
2022-12-31T08:07:37.644Z,98769.16
2022-12-31T08:10:15.638Z,98776.41
2022-12-31T08:12:46.736Z,98792.59
2022-12-31T08:15:17.056Z,98797.03
2022-12-31T08:17:44.979Z,98807.25
2022-12-31T08:20:13.964Z,98801.63
2022-12-31T08:22:49.914Z,98814.78
2022-12-31T08:25:22.607Z,98807.41
2022-12-31T08:27:57.044Z,98827.88
2022-12-31T08:30:30.767Z,98842.00
2022-12-31T08:33:06.127Z,98845.72
2022-12-31T08:35:42.235Z,98867.59
2022-12-31T08:38:16.495Z,98884.88
2022-12-31T08:40:49.922Z,98888.53
2022-12-31T08:43:28.977Z,98908.91
2022-12-31T08:45:58.765Z,98923.50
2022-12-31T08:48:30.863Z,98939.22
2022-12-31T08:50:58.571Z,98939.34
2022-12-31T08:53:26.346Z,98943.56
2022-12-31T08:55:57.828Z,98963.47
2022-12-31T08:58:33.860Z,98954.91
2022-12-31T09:01:03.139Z,98975.38
2022-12-31T09:03:38.546Z,98975.06
2022-12-31T09:06:12.349Z,98998.16
2022-12-31T09:08:45.871Z,99003.22
2022-12-31T09:11:20.841Z,99004.03
2022-12-31T09:14:02.120Z,99016.06
2022-12-31T09:16:33.594Z,99022.22
2022-12-31T09:19:01.126Z,99026.50
2022-12-31T09:21:28.743Z,99017.16
2022-12-31T09:23:56.442Z,99029.53
2022-12-31T09:26:32.556Z,99034.28
2022-12-31T09:29:04.840Z,99022.47
2022-12-31T09:31:38.861Z,99024.84
2022-12-31T09:34:07.960Z,99027.22
2022-12-31T09:36:40.451Z,99037.25
2022-12-31T09:39:11.624Z,99043.03
2022-12-31T09:41:53.233Z,99041.75
2022-12-31T09:44:35.596Z,99036.53
2022-12-31T09:47:22.592Z,99037.88
2022-12-31T09:50:04.715Z,99042.09
2022-12-31T09:52:37.632Z,99036.06
2022-12-31T09:55:14.593Z,99044.88
2022-12-31T09:57:42.908Z,99060.84
2022-12-31T10:00:13.659Z,99049.81
2022-12-31T10:02:58.542Z,99084.56
2022-12-31T10:05:43.673Z,99066.69
2022-12-31T10:08:14.931Z,99061.44
2022-12-31T10:10:47.364Z,99073.69
2022-12-31T10:13:29.757Z,99066.69
2022-12-31T10:16:06.410Z,99060.91
2022-12-31T10:18:45.612Z,99080.00
2022-12-31T10:21:20.666Z,99080.09
2022-12-31T10:23:52.747Z,99073.44
2022-12-31T10:26:28.739Z,99066.38
2022-12-31T10:29:00.273Z,99079.06
2022-12-31T10:31:38.076Z,99084.31
2022-12-31T10:34:14.298Z,99078.03
2022-12-31T10:36:56.635Z,99072.34
2022-12-31T10:39:30.074Z,99089.19
2022-12-31T10:42:12.307Z,99072.44
2022-12-31T10:44:59.280Z,99040.88
2022-12-31T10:48:00.135Z,99077.97
2022-12-31T10:50:38.037Z,99068.78
2022-12-31T10:53:29.360Z,99077.72
2022-12-31T10:56:14.506Z,99065.66
2022-12-31T10:59:00.100Z,99068.69
2022-12-31T11:01:33.825Z,99069.53
2022-12-31T11:04:31.373Z,99075.81
2022-12-31T11:07:18.213Z,99067.25
2022-12-31T11:10:03.061Z,99078.66
2022-12-31T11:12:46.887Z,99087.88
2022-12-31T11:15:27.024Z,99089.47
2022-12-31T11:17:59.468Z,99084.25
2022-12-31T11:20:43.865Z,99094.50
2022-12-31T11:23:19.321Z,99097.13
2022-12-31T11:25:51.664Z,99097.28
2022-12-31T11:28:41.138Z,99101.47
2022-12-31T11:31:24.276Z,99104.09
2022-12-31T11:34:00.024Z,99102.53
2022-12-31T11:36:34.125Z,99099.97
2022-12-31T11:39:14.300Z,99095.91
2022-12-31T11:41:47.335Z,99087.25
2022-12-31T11:44:19.067Z,99092.75
2022-12-31T11:46:59.537Z,99082.31
2022-12-31T11:49:42.124Z,99104.56
2022-12-31T11:52:38.511Z,99113.63
2022-12-31T11:55:16.513Z,99087.84
2022-12-31T11:57:47.691Z,99085.50
2022-12-31T12:00:18.900Z,99043.03
2022-12-31T12:02:48.879Z,99084.31
2022-12-31T12:05:18.407Z,99074.44
2022-12-31T12:07:45.858Z,99071.34
2022-12-31T12:10:23.118Z,99071.13
2022-12-31T12:12:51.618Z,99073.19
2022-12-31T12:15:22.557Z,99070.22
2022-12-31T12:17:51.544Z,99073.88
2022-12-31T12:20:21.049Z,99066.91
2022-12-31T12:22:52.328Z,99054.63
2022-12-31T12:25:22.460Z,99025.28
2022-12-31T12:27:50.019Z,99060.53
2022-12-31T12:30:20.475Z,99062.22
2022-12-31T12:32:52.498Z,99068.81
2022-12-31T12:35:24.617Z,99065.78
2022-12-31T12:37:59.217Z,99048.78
2022-12-31T12:40:33.623Z,99053.06
2022-12-31T12:43:02.561Z,99061.19
2022-12-31T12:45:37.502Z,99060.88
2022-12-31T12:48:10.053Z,99059.88
2022-12-31T12:50:40.459Z,99060.19
2022-12-31T12:53:20.942Z,99072.13
2022-12-31T12:55:55.444Z,99099.91
2022-12-31T12:58:29.921Z,99098.84
2022-12-31T13:01:01.223Z,99106.28
2022-12-31T13:04:32.336Z,99106.38
2022-12-31T13:06:52.949Z,99114.78
2022-12-31T13:09:26.320Z,99123.38
2022-12-31T13:12:07.571Z,99137.28
2022-12-31T13:14:38.907Z,99136.97
2022-12-31T13:17:19.239Z,99146.75
2022-12-31T13:19:50.300Z,99143.34
2022-12-31T13:22:21.024Z,99153.22
2022-12-31T13:24:55.981Z,99147.78
2022-12-31T13:27:28.659Z,99140.09
2022-12-31T13:29:57.538Z,99162.59
2022-12-31T13:32:31.939Z,99150.44
2022-12-31T13:35:16.469Z,99168.53
2022-12-31T13:37:44.274Z,99159.81
2022-12-31T13:40:19.129Z,99169.72
2022-12-31T13:42:53.268Z,99169.59
2022-12-31T13:45:23.416Z,99156.94
2022-12-31T13:47:53.372Z,99158.44
2022-12-31T13:50:23.233Z,99168.94
2022-12-31T13:52:54.030Z,99161.31
2022-12-31T13:55:24.149Z,99168.47
2022-12-31T13:57:54.378Z,99168.72
2022-12-31T14:00:23.917Z,99167.13
2022-12-31T14:02:56.562Z,99160.94
2022-12-31T14:05:26.187Z,99160.03
2022-12-31T14:07:55.320Z,99169.72
2022-12-31T14:10:26.003Z,99171.97
2022-12-31T14:12:57.158Z,99170.13
2022-12-31T14:15:26.319Z,99169.00
2022-12-31T14:17:59.871Z,99184.19
2022-12-31T14:20:32.372Z,99177.91
2022-12-31T14:23:03.823Z,99180.44
2022-12-31T14:25:33.033Z,99193.38
2022-12-31T14:28:02.796Z,99184.16
2022-12-31T14:30:32.138Z,99211.16
2022-12-31T14:33:07.388Z,99212.00
2022-12-31T14:35:44.708Z,99230.44
2022-12-31T14:38:19.999Z,99197.00
2022-12-31T14:40:55.143Z,99200.41
2022-12-31T14:43:28.544Z,99195.72
2022-12-31T14:46:04.673Z,99197.28
2022-12-31T14:48:38.549Z,99211.19
2022-12-31T14:51:06.853Z,99200.19
2022-12-31T14:53:34.326Z,99218.38
2022-12-31T14:56:03.160Z,99214.72
2022-12-31T14:58:33.016Z,99205.25
2022-12-31T15:01:01.455Z,99208.34
2022-12-31T15:03:36.328Z,99209.88
2022-12-31T15:06:27.376Z,99208.69
2022-12-31T15:09:08.358Z,99209.59
2022-12-31T15:11:46.030Z,99218.94
2022-12-31T15:14:26.179Z,99220.53
2022-12-31T15:16:56.615Z,99207.19
2022-12-31T15:19:42.220Z,99202.59
2022-12-31T15:22:18.573Z,99201.84
2022-12-31T15:24:47.183Z,99205.16
2022-12-31T15:27:24.432Z,99197.19
2022-12-31T15:29:53.342Z,99192.97
2022-12-31T15:32:21.748Z,99187.50
2022-12-31T15:34:49.296Z,99183.66
2022-12-31T15:37:28.706Z,99202.06
2022-12-31T15:40:05.939Z,99191.81
2022-12-31T15:42:44.543Z,99210.84
2022-12-31T15:45:21.661Z,99213.69
2022-12-31T15:47:52.371Z,99214.50
2022-12-31T15:50:21.309Z,99215.06
2022-12-31T15:52:52.487Z,99226.97
2022-12-31T15:55:23.730Z,99224.47
2022-12-31T15:57:51.410Z,99245.59
2022-12-31T16:00:21.612Z,99241.97
2022-12-31T16:02:51.412Z,99255.69
2022-12-31T16:05:20.276Z,99260.94
2022-12-31T16:07:48.127Z,99276.31
2022-12-31T16:10:18.643Z,99290.91
2022-12-31T16:12:46.221Z,99311.34
2022-12-31T16:15:21.678Z,99322.16
2022-12-31T16:17:58.895Z,99326.69
2022-12-31T16:20:27.327Z,99321.06
2022-12-31T16:22:56.285Z,99338.31
2022-12-31T16:25:33.088Z,99361.44
2022-12-31T16:28:02.348Z,99373.84
2022-12-31T16:30:32.020Z,99387.69
2022-12-31T16:33:00.185Z,99389.16
2022-12-31T16:35:28.490Z,99400.22
2022-12-31T16:38:11.765Z,99384.94
2022-12-31T16:40:39.680Z,99406.16
2022-12-31T16:43:22.554Z,99406.03
2022-12-31T16:45:51.463Z,99409.41
2022-12-31T16:48:19.964Z,99428.94
2022-12-31T16:50:48.371Z,99439.41
2022-12-31T16:53:17.757Z,99437.50
2022-12-31T16:55:51.281Z,99425.03
2022-12-31T16:58:20.511Z,99435.34
2022-12-31T17:00:49.128Z,99440.47
2022-12-31T17:03:19.987Z,99447.78
2022-12-31T17:05:57.948Z,99426.38
2022-12-31T17:08:26.896Z,99482.66
2022-12-31T17:10:56.296Z,99476.28
2022-12-31T17:13:28.201Z,99470.34
2022-12-31T17:15:57.284Z,99456.34
2022-12-31T17:18:27.401Z,99470.38
2022-12-31T17:20:56.223Z,99457.59
2022-12-31T17:23:26.338Z,99465.47
2022-12-31T17:26:00.643Z,99483.16
2022-12-31T17:28:29.855Z,99482.56
2022-12-31T17:31:00.691Z,99492.03
2022-12-31T17:33:32.700Z,99485.56
2022-12-31T17:36:21.277Z,99469.38
2022-12-31T17:38:48.753Z,99489.09
2022-12-31T17:41:18.224Z,99490.34
2022-12-31T17:43:45.769Z,99504.38
2022-12-31T17:46:14.396Z,99516.66
2022-12-31T17:48:43.800Z,99532.06
2022-12-31T17:51:11.552Z,99542.53
2022-12-31T17:53:39.029Z,99541.66
2022-12-31T17:56:10.354Z,99532.63
2022-12-31T17:58:43.315Z,99571.84
2022-12-31T18:01:11.156Z,99574.81
2022-12-31T18:03:38.688Z,99572.19
2022-12-31T18:06:16.052Z,99591.34
2022-12-31T18:08:44.200Z,99583.16
2022-12-31T18:11:16.077Z,99595.56
2022-12-31T18:13:43.534Z,99598.09
2022-12-31T18:16:11.024Z,99595.34
2022-12-31T18:18:40.037Z,99604.34
2022-12-31T18:21:12.444Z,99618.16
2022-12-31T18:23:41.564Z,99612.44
2022-12-31T18:26:10.516Z,99631.03
2022-12-31T18:28:37.977Z,99646.44
2022-12-31T18:31:05.538Z,99653.50
2022-12-31T18:33:33.383Z,99657.16
2022-12-31T18:36:09.597Z,99649.19
2022-12-31T18:38:39.274Z,99658.06
2022-12-31T18:41:07.188Z,99676.22
2022-12-31T18:43:34.692Z,99688.31
2022-12-31T18:46:02.276Z,99665.34
2022-12-31T18:48:29.846Z,99691.25
2022-12-31T18:50:57.472Z,99707.78
2022-12-31T18:53:25.243Z,99711.13
2022-12-31T18:55:54.792Z,99711.56
2022-12-31T18:58:22.462Z,99731.53
2022-12-31T19:00:50.692Z,99732.69
2022-12-31T19:03:20.132Z,99755.38
2022-12-31T19:05:49.699Z,99762.00
2022-12-31T19:08:17.292Z,99747.72
2022-12-31T19:10:44.903Z,99765.78
2022-12-31T19:13:14.694Z,99775.13
2022-12-31T19:15:43.337Z,99793.72
2022-12-31T19:18:11.204Z,99798.53
2022-12-31T19:20:39.587Z,99815.66
2022-12-31T19:23:07.441Z,99802.72
2022-12-31T19:25:35.968Z,99810.63
2022-12-31T19:28:04.019Z,99803.34
2022-12-31T19:30:33.424Z,99791.69
2022-12-31T19:33:02.249Z,99827.16
2022-12-31T19:35:29.695Z,99823.31
2022-12-31T19:37:57.098Z,99841.69
2022-12-31T19:40:25.953Z,99847.81
2022-12-31T19:42:54.826Z,99860.84
2022-12-31T19:45:23.248Z,99888.00
2022-12-31T19:47:52.584Z,99875.91
2022-12-31T19:50:21.587Z,99888.66
2022-12-31T19:52:50.321Z,99900.09
2022-12-31T19:55:19.272Z,99898.13
2022-12-31T19:57:47.411Z,99887.53
2022-12-31T20:00:16.552Z,99881.59
2022-12-31T20:02:45.065Z,99887.56
2022-12-31T20:05:14.854Z,99911.84
2022-12-31T20:07:42.460Z,99907.19
2022-12-31T20:10:10.884Z,99892.78
2022-12-31T20:12:44.134Z,99879.78
2022-12-31T20:15:12.067Z,99904.47
2022-12-31T20:17:39.546Z,99932.66
2022-12-31T20:20:07.621Z,99943.84
2022-12-31T20:22:36.561Z,99920.84
2022-12-31T20:25:04.080Z,99915.00
2022-12-31T20:27:31.626Z,99922.44
2022-12-31T20:29:59.116Z,99920.25
2022-12-31T20:32:26.553Z,99935.25
2022-12-31T20:34:54.062Z,99938.09
2022-12-31T20:37:21.492Z,99938.59
2022-12-31T20:39:50.359Z,99938.09
2022-12-31T20:42:17.878Z,99935.47
2022-12-31T20:44:45.391Z,99916.34
2022-12-31T20:47:12.846Z,99959.53
2022-12-31T20:52:27.789Z,99956.34
2022-12-31T20:54:56.546Z,99944.69
2022-12-31T20:57:27.636Z,99943.88
2022-12-31T20:59:57.560Z,99941.47
2022-12-31T21:02:39.526Z,99947.97
2022-12-31T21:05:09.882Z,99938.03
2022-12-31T21:07:37.541Z,99950.88
2022-12-31T21:10:06.990Z,99949.50
2022-12-31T21:12:53.166Z,99961.22
2022-12-31T21:15:21.323Z,99969.00
2022-12-31T21:17:48.839Z,99971.72
2022-12-31T21:20:16.638Z,99980.78
2022-12-31T21:22:44.153Z,99972.91
2022-12-31T21:25:12.982Z,99924.50
2022-12-31T21:27:40.476Z,99988.19
2022-12-31T21:30:23.903Z,99971.06
2022-12-31T21:32:51.442Z,99992.63
2022-12-31T21:38:07.596Z,99987.38
2022-12-31T21:40:36.477Z,100004.72
2022-12-31T21:43:03.993Z,100004.06
2022-12-31T21:45:31.455Z,100016.19
2022-12-31T21:48:17.146Z,100002.91
2022-12-31T21:50:45.907Z,100012.66
2022-12-31T21:53:13.868Z,100017.78
2022-12-31T21:56:02.263Z,100018.44
2022-12-31T21:58:29.845Z,100008.09
2022-12-31T22:01:15.506Z,100012.91
2022-12-31T22:03:43.234Z,100010.34
2022-12-31T22:06:12.937Z,100013.13
2022-12-31T22:08:41.133Z,100006.47
2022-12-31T22:11:10.409Z,99999.03
2022-12-31T22:13:37.891Z,99996.19
2022-12-31T22:16:06.336Z,99997.81
2022-12-31T22:18:35.526Z,100003.06
2022-12-31T22:21:04.033Z,100009.59
2022-12-31T22:23:32.309Z,100010.78
2022-12-31T22:25:59.754Z,99998.69
2022-12-31T22:28:43.922Z,100006.69
2022-12-31T22:31:13.644Z,100008.16
2022-12-31T22:33:41.283Z,100008.91
2022-12-31T22:36:11.166Z,100021.44
2022-12-31T22:38:38.719Z,100011.94
2022-12-31T22:41:07.567Z,100016.66
2022-12-31T22:43:37.422Z,100033.00
2022-12-31T22:46:09.106Z,100042.06
2022-12-31T22:48:36.726Z,100039.16
2022-12-31T22:51:04.389Z,100024.19
2022-12-31T22:53:31.870Z,100049.41
2022-12-31T22:55:59.577Z,100041.53
2022-12-31T22:58:27.416Z,100051.22
2022-12-31T23:00:56.246Z,100041.09
2022-12-31T23:03:23.753Z,100057.13
2022-12-31T23:05:52.298Z,100050.56
2022-12-31T23:08:23.242Z,100049.19
2022-12-31T23:11:00.672Z,100052.19
2022-12-31T23:13:50.602Z,100067.78
2022-12-31T23:16:37.865Z,100073.19
2022-12-31T23:19:23.463Z,100069.59
2022-12-31T23:22:08.465Z,100078.28
2022-12-31T23:24:36.009Z,100070.72
2022-12-31T23:27:03.667Z,100065.19
2022-12-31T23:29:31.221Z,100068.88
2022-12-31T23:32:00.139Z,100078.34
2022-12-31T23:34:27.652Z,100076.09
2022-12-31T23:36:55.395Z,100064.31
2022-12-31T23:39:22.933Z,100063.63
2022-12-31T23:41:50.436Z,100046.22
2022-12-31T23:44:17.922Z,100044.25
2022-12-31T23:46:45.489Z,100042.06
2022-12-31T23:49:14.303Z,100036.59
2022-12-31T23:51:41.721Z,100021.16
2022-12-31T23:54:09.336Z,100017.34
2022-12-31T23:56:37.017Z,100015.53
2022-12-31T23:59:04.533Z,100000.00
